Time;durP1;ratioP1;P1;durP2;ratioP2;P2;SDS_P1;SDS_P2;PMS_P1;PMS_P2;Temp;Humidity;BMP_temperature;BMP_pressure;BME280_temperature;BME280_humidity;BME280_pressure;Samples;Min_cycle;Max_cycle;Signal;HPM_P1;HPM_P2
2021/06/21 00:00:14;;;;;;;2.65;1.61;;;;;;;;;;346812;153;858926;-58
2021/06/21 00:01:17;;;;;;;6.71;1.57;;;;;;;;;;348898;151;857243;-58
2021/06/21 00:02:21;;;;;;;3.89;1.48;;;;;;;;;;348750;154;866534;-59
2021/06/21 00:03:22;;;;;;;4.31;1.29;;;;;;;;;;347889;153;858834;-57
2021/06/21 00:04:24;;;;;;;2.73;1.41;;;;;;;;;;348202;151;857870;-58
2021/06/21 00:05:25;;;;;;;6.43;1.78;;;;;;;;;;348113;154;857783;-59
2021/06/21 00:06:29;;;;;;;3.42;1.66;;;;;;;;;;347648;154;857326;-58
2021/06/21 00:07:31;;;;;;;2.64;1.46;;;;;;;;;;348525;151;865914;-58
2021/06/21 00:08:32;;;;;;;6.01;1.57;;;;;;;;;;348130;151;857336;-58
2021/06/21 00:09:34;;;;;;;3.21;1.62;;;;;;;;;;344239;154;857296;-58
2021/06/21 00:10:36;;;;;;;4.61;1.46;;;;;;;;;;346425;151;858925;-58
2021/06/21 00:11:37;;;;;;;6.37;1.67;;;;;;;;;;348116;151;864799;-58
2021/06/21 00:12:41;;;;;;;6.98;1.41;;;;;;;;;;349202;154;857668;-60
2021/06/21 00:13:42;;;;;;;5.71;1.56;;;;;;;;;;348846;153;857714;-59
2021/06/21 00:14:44;;;;;;;6.84;1.61;;;;;;;;;;345718;153;857366;-59
2021/06/21 00:15:46;;;;;;;2.75;1.29;;;;;;;;;;334132;157;865160;-59
2021/06/21 00:16:48;;;;;;;5.50;1.53;;;;;;;;;;348995;152;857412;-58
2021/06/21 00:17:49;;;;;;;3.57;1.44;;;;;;;;;;348506;151;857364;-58
2021/06/21 00:18:51;;;;;;;2.80;1.61;;;;;;;;;;348342;153;859793;-59
2021/06/21 00:19:52;;;;;;;3.27;1.41;;;;;;;;;;349094;154;858890;-58
2021/06/21 00:20:54;;;;;;;2.39;1.42;;;;;;;;;;347946;151;857411;-59
2021/06/21 00:21:56;;;;;;;3.26;1.25;;;;;;;;;;347626;151;864336;-58
2021/06/21 00:22:57;;;;;;;6.30;1.61;;;;;;;;;;346484;153;857457;-58
2021/06/21 00:23:59;;;;;;;4.74;1.22;;;;;;;;;;347853;154;865237;-59
2021/06/21 00:25:01;;;;;;;5.48;1.41;;;;;;;;;;347394;151;857281;-59
2021/06/21 00:26:02;;;;;;;2.99;1.26;;;;;;;;;;348549;154;867033;-56
2021/06/21 00:27:04;;;;;;;2.29;1.20;;;;;;;;;;349002;154;867024;-58
2021/06/21 00:28:06;;;;;;;4.89;1.34;;;;;;;;;;348367;153;858243;-59
2021/06/21 00:29:07;;;;;;;2.64;1.32;;;;;;;;;;348589;151;864975;-58
2021/06/21 00:30:10;;;;;;;6.71;1.37;;;;;;;;;;349410;153;860286;-57
2021/06/21 00:31:12;;;;;;;3.25;1.30;;;;;;;;;;349938;150;858305;-58
2021/06/21 00:32:14;;;;;;;4.77;1.20;;;;;;;;;;348371;151;860901;-59
2021/06/21 00:33:16;;;;;;;4.18;1.30;;;;;;;;;;350729;151;857732;-59
2021/06/21 00:34:17;;;;;;;2.44;1.34;;;;;;;;;;348863;154;857326;-58
2021/06/21 00:35:19;;;;;;;4.79;1.03;;;;;;;;;;348743;153;866634;-59
2021/06/21 00:36:22;;;;;;;2.52;0.98;;;;;;;;;;346586;151;859077;-58
2021/06/21 00:37:23;;;;;;;4.81;1.18;;;;;;;;;;348501;154;857174;-58
2021/06/21 00:38:25;;;;;;;2.18;1.25;;;;;;;;;;347155;151;858984;-57
2021/06/21 00:39:26;;;;;;;9.73;1.46;;;;;;;;;;347839;151;858149;-60
2021/06/21 00:40:28;;;;;;;3.00;1.19;;;;;;;;;;350974;151;859064;-58
2021/06/21 00:41:30;;;;;;;4.19;1.09;;;;;;;;;;343754;153;857398;-58
2021/06/21 00:42:32;;;;;;;4.83;1.21;;;;;;;;;;348199;151;859248;-58
2021/06/21 00:43:34;;;;;;;2.82;1.38;;;;;;;;;;348738;151;859060;-58
2021/06/21 00:44:36;;;;;;;3.34;1.19;;;;;;;;;;348997;153;864926;-58
2021/06/21 00:45:37;;;;;;;6.34;1.48;;;;;;;;;;348763;151;857622;-59
2021/06/21 00:46:39;;;;;;;1.96;1.22;;;;;;;;;;349865;151;857318;-58
2021/06/21 00:47:41;;;;;;;5.05;1.30;;;;;;;;;;349120;154;857361;-58
2021/06/21 00:48:43;;;;;;;7.16;1.27;;;;;;;;;;349096;153;857439;-58
2021/06/21 00:49:44;;;;;;;5.72;1.29;;;;;;;;;;348758;151;857479;-58
2021/06/21 00:50:48;;;;;;;6.87;1.41;;;;;;;;;;344759;151;866634;-57
2021/06/21 00:51:52;;;;;;;2.76;1.49;;;;;;;;;;348755;154;857492;-58
2021/06/21 00:52:54;;;;;;;1.58;0.89;;;;;;;;;;347949;153;857390;-58
2021/06/21 00:53:55;;;;;;;7.93;1.36;;;;;;;;;;348527;151;858539;-58
2021/06/21 00:55:00;;;;;;;5.42;1.09;;;;;;;;;;349023;154;857272;-58
2021/06/21 00:56:02;;;;;;;1.64;1.13;;;;;;;;;;348438;151;857321;-58
2021/06/21 00:57:04;;;;;;;5.67;1.16;;;;;;;;;;347932;151;860029;-58
2021/06/21 00:58:06;;;;;;;4.41;1.22;;;;;;;;;;343145;157;858534;-57
2021/06/21 00:59:07;;;;;;;2.65;1.18;;;;;;;;;;347075;153;858330;-58
2021/06/21 01:00:13;;;;;;;4.43;1.22;;;;;;;;;;347826;151;857379;-57
2021/06/21 01:01:15;;;;;;;4.46;1.17;;;;;;;;;;343536;154;857921;-58
2021/06/21 01:02:17;;;;;;;4.37;1.08;;;;;;;;;;347511;153;858675;-58
2021/06/21 01:03:19;;;;;;;7.51;1.46;;;;;;;;;;347677;153;866372;-59
2021/06/21 01:04:20;;;;;;;2.02;1.20;;;;;;;;;;350467;151;857273;-57
2021/06/21 01:05:23;;;;;;;2.28;1.20;;;;;;;;;;345875;154;859013;-58
2021/06/21 01:06:27;;;;;;;4.24;1.29;;;;;;;;;;348404;151;859124;-57
2021/06/21 01:07:28;;;;;;;3.01;1.15;;;;;;;;;;347736;154;859200;-58
2021/06/21 01:08:31;;;;;;;2.49;1.14;;;;;;;;;;348630;154;857290;-58
2021/06/21 01:09:32;;;;;;;2.85;1.28;;;;;;;;;;347398;153;857531;-58
2021/06/21 01:10:36;;;;;;;2.63;1.49;;;;;;;;;;341169;154;857345;-58
2021/06/21 01:11:52;;;;;;;3.17;1.05;;;;;;;;;;341386;154;860425;-58
2021/06/21 01:13:04;;;;;;;3.63;1.04;;;;;;;;;;342299;154;858883;-58
2021/06/21 01:14:08;;;;;;;5.12;1.27;;;;;;;;;;342134;154;858970;-57
2021/06/21 01:15:10;;;;;;;4.87;1.24;;;;;;;;;;351228;151;857371;-58
2021/06/21 01:16:26;;;;;;;4.91;1.43;;;;;;;;;;346306;154;857349;-58
2021/06/21 01:17:35;;;;;;;2.74;1.06;;;;;;;;;;348728;151;859208;-57
2021/06/21 01:18:37;;;;;;;2.73;1.27;;;;;;;;;;347762;153;857987;-58
2021/06/21 01:19:40;;;;;;;1.82;1.27;;;;;;;;;;348907;153;857575;-57
2021/06/21 01:20:53;;;;;;;5.10;2.19;;;;;;;;;;349433;153;864551;-58
2021/06/21 01:22:00;;;;;;;4.41;1.15;;;;;;;;;;346150;151;857306;-58
2021/06/21 01:23:22;;;;;;;3.22;1.12;;;;;;;;;;346259;154;857910;-58
2021/06/21 01:24:25;;;;;;;4.97;1.30;;;;;;;;;;348263;151;860399;-59
2021/06/21 01:25:31;;;;;;;2.89;1.11;;;;;;;;;;342604;154;858041;-58
2021/06/21 01:26:41;;;;;;;2.48;1.02;;;;;;;;;;345588;154;857288;-58
2021/06/21 01:27:52;;;;;;;1.49;1.11;;;;;;;;;;348067;151;858589;-59
2021/06/21 01:29:13;;;;;;;2.71;1.18;;;;;;;;;;347414;151;857369;-58
2021/06/21 01:30:18;;;;;;;4.99;1.18;;;;;;;;;;347269;153;859576;-58
2021/06/21 01:31:20;;;;;;;4.01;1.51;;;;;;;;;;348016;151;857899;-59
2021/06/21 01:32:35;;;;;;;3.65;1.17;;;;;;;;;;347037;153;858617;-58
2021/06/21 01:33:37;;;;;;;2.18;0.94;;;;;;;;;;346315;153;857355;-58
2021/06/21 01:34:40;;;;;;;4.85;1.33;;;;;;;;;;348270;151;857699;-58
2021/06/21 01:35:50;;;;;;;4.28;1.36;;;;;;;;;;349054;151;858334;-58
2021/06/21 01:36:52;;;;;;;2.87;1.16;;;;;;;;;;345049;154;857340;-60
2021/06/21 01:37:55;;;;;;;3.33;1.20;;;;;;;;;;348923;153;859773;-60
2021/06/21 01:38:58;;;;;;;3.13;1.62;;;;;;;;;;347642;151;857216;-59
2021/06/21 01:40:00;;;;;;;5.75;1.42;;;;;;;;;;348206;154;857477;-60
2021/06/21 01:41:03;;;;;;;4.42;1.00;;;;;;;;;;347097;154;857351;-60
2021/06/21 01:42:06;;;;;;;6.09;1.46;;;;;;;;;;348464;151;857220;-59
2021/06/21 01:43:09;;;;;;;5.61;1.54;;;;;;;;;;344847;154;858725;-57
2021/06/21 01:44:12;;;;;;;4.34;1.32;;;;;;;;;;349001;154;860032;-58
2021/06/21 01:45:16;;;;;;;5.55;1.35;;;;;;;;;;348186;151;858863;-56
2021/06/21 01:46:18;;;;;;;10.44;1.57;;;;;;;;;;344762;154;859185;-58
2021/06/21 01:47:20;;;;;;;5.06;1.89;;;;;;;;;;346772;154;864776;-58
2021/06/21 01:48:22;;;;;;;5.56;1.54;;;;;;;;;;347618;153;864813;-59
2021/06/21 01:49:25;;;;;;;8.54;1.65;;;;;;;;;;346742;151;864793;-59
2021/06/21 01:50:26;;;;;;;7.55;1.27;;;;;;;;;;346654;154;858600;-60
2021/06/21 01:51:28;;;;;;;5.91;1.03;;;;;;;;;;345624;154;857315;-60
2021/06/21 01:52:32;;;;;;;4.00;1.33;;;;;;;;;;347798;151;864605;-58
2021/06/21 01:53:33;;;;;;;3.57;1.19;;;;;;;;;;344594;151;857388;-57
2021/06/21 01:54:35;;;;;;;8.39;1.38;;;;;;;;;;343770;154;858054;-58
2021/06/21 01:55:37;;;;;;;5.33;1.51;;;;;;;;;;344982;152;857203;-58
2021/06/21 01:56:44;;;;;;;3.20;1.47;;;;;;;;;;344844;152;866450;-58
2021/06/21 01:57:46;;;;;;;4.23;1.21;;;;;;;;;;349013;153;864987;-58
2021/06/21 01:58:49;;;;;;;3.54;1.27;;;;;;;;;;346138;153;856997;-58
2021/06/21 01:59:51;;;;;;;4.92;1.25;;;;;;;;;;347667;151;857359;-57
2021/06/21 02:00:53;;;;;;;3.87;1.28;;;;;;;;;;347808;154;858932;-57
2021/06/21 02:01:57;;;;;;;2.04;1.12;;;;;;;;;;345618;153;866344;-57
2021/06/21 02:02:59;;;;;;;3.61;1.17;;;;;;;;;;347711;151;857307;-58
2021/06/21 02:04:01;;;;;;;6.07;1.19;;;;;;;;;;350404;151;857472;-59
2021/06/21 02:05:03;;;;;;;3.49;1.28;;;;;;;;;;348971;154;865269;-58
2021/06/21 02:21:49;;;;;;;3.60;1.09;;;;;;;22.12;53.11;99577.56;373063;142;882215;-59
2021/06/21 02:22:51;;;;;;;1.79;1.01;;;;;;;22.04;53.10;99581.53;366258;147;859486;-59
2021/06/21 02:23:53;;;;;;;2.26;1.01;;;;;;;22.09;53.14;99583.03;366252;145;864816;-59
2021/06/21 02:25:01;;;;;;;3.13;1.18;;;;;;;;;;365608;144;864755;-58
2021/06/21 02:26:03;;;;;;;4.09;1.29;;;;;;;;;;358778;150;859915;-58
2021/06/21 02:27:05;;;;;;;5.76;1.16;;;;;;;;;;362844;146;857536;-57
2021/06/21 02:28:06;;;;;;;3.03;1.17;;;;;;;;;;363773;144;857836;-57
2021/06/21 02:29:08;;;;;;;1.66;0.88;;;;;;;;;;365840;147;859038;-57
2021/06/21 02:30:11;;;;;;;2.51;1.17;;;;;;;;;;361177;146;865954;-58
2021/06/21 02:31:15;;;;;;;6.88;1.82;;;;;;;;;;363159;146;858935;-57
2021/06/21 02:32:17;;;;;;;2.16;1.24;;;;;;;;;;365567;147;865976;-59
2021/06/21 02:33:18;;;;;;;3.06;1.20;;;;;;;;;;367846;144;857215;-58
2021/06/21 02:34:20;;;;;;;2.16;1.24;;;;;;;;;;363489;146;865317;-56
2021/06/21 02:35:22;;;;;;;3.51;1.11;;;;;;;;;;356587;148;859629;-58
2021/06/21 02:36:24;;;;;;;3.67;1.32;;;;;;;;;;358372;147;858793;-58
2021/06/21 02:37:25;;;;;;;2.24;1.12;;;;;;;;;;365391;145;858638;-57
2021/06/21 02:38:27;;;;;;;3.73;1.19;;;;;;;;;;362678;146;859646;-60
2021/06/21 02:39:28;;;;;;;3.77;1.25;;;;;;;;;;361852;146;859740;-57
2021/06/21 02:40:30;;;;;;;3.85;1.32;;;;;;;;;;359389;147;858401;-57
2021/06/21 02:41:32;;;;;;;4.73;1.08;;;;;;;;;;358995;147;858969;-58
2021/06/21 02:42:34;;;;;;;8.38;1.29;;;;;;;;;;359468;149;857444;-58
2021/06/21 02:43:35;;;;;;;1.79;1.02;;;;;;;;;;359500;147;857771;-58
2021/06/21 02:44:37;;;;;;;1.85;0.90;;;;;;;;;;360229;147;857207;-58
2021/06/21 02:45:38;;;;;;;2.30;1.09;;;;;;;;;;359376;148;857234;-58
2021/06/21 02:46:42;;;;;;;5.00;1.28;;;;;;;;;;360266;149;857162;-59
2021/06/21 02:47:44;;;;;;;5.99;1.41;;;;;;;;;;359827;148;857530;-58
2021/06/21 02:48:46;;;;;;;5.42;1.29;;;;;;;;;;358484;147;857478;-58
2021/06/21 02:49:47;;;;;;;3.90;1.19;;;;;;;;;;358999;148;857363;-59
2021/06/21 02:50:53;;;;;;;3.34;0.99;;;;;;;;;;353161;150;858399;-59
2021/06/21 02:52:02;;;;;;;4.22;1.80;;;;;;;;;;352154;149;864819;-60
2021/06/21 02:53:09;;;;;;;2.78;1.04;;;;;;;;;;359556;149;858575;-60
2021/06/21 02:54:17;;;;;;;3.15;1.23;;;;;;;;;;359350;148;857287;-58
2021/06/21 02:55:22;;;;;;;4.65;1.02;;;;;;;;;;357142;148;857404;-59
2021/06/21 02:56:33;;;;;;;1.98;1.11;;;;;;;;;;358134;148;858635;-58
2021/06/21 02:57:43;;;;;;;2.76;1.27;;;;;;;;;;358272;148;857432;-59
2021/06/21 02:58:45;;;;;;;4.69;1.13;;;;;;;;;;358471;148;859351;-59
2021/06/21 02:59:46;;;;;;;2.79;1.44;;;;;;;;;;357902;148;857826;-58
2021/06/21 03:00:50;;;;;;;3.59;1.22;;;;;;;;;;360905;147;856651;-58
2021/06/21 03:01:52;;;;;;;1.95;1.19;;;;;;;;;;359513;148;860082;-58
2021/06/21 03:02:58;;;;;;;4.14;1.10;;;;;;;;;;357695;147;858480;-58
2021/06/21 03:03:58;;;;;;;3.38;1.21;;;;;;;;;;357825;150;857198;-57
2021/06/21 03:04:59;;;;;;;6.40;1.03;;;;;;;;;;359835;148;858140;-59
2021/06/21 03:06:05;;;;;;;5.07;1.44;;;;;;;;;;357648;148;857190;-59
2021/06/21 03:07:07;;;;;;;4.22;1.02;;;;;;;;;;359079;148;865529;-59
2021/06/21 03:08:09;;;;;;;1.72;1.12;;;;;;;;;;360940;148;857259;-59
2021/06/21 03:09:11;;;;;;;5.12;1.27;;;;;;;;;;357542;147;864979;-60
2021/06/21 03:10:14;;;;;;;5.85;1.15;;;;;;;;;;357938;149;857316;-59
2021/06/21 04:43:26;;;;;;;4.19;1.14;;;;;;;25.73;44.38;99561.66;379598;139;880171;-56
2021/06/21 04:44:27;;;;;;;5.12;1.06;;;;;;;25.72;44.36;99568.78;374328;144;857385;-56
2021/06/21 04:45:29;;;;;;;4.63;1.01;;;;;;;25.81;44.91;99570.71;371954;143;864635;-56
2021/06/21 04:46:34;;;;;;;4.08;1.37;;;;;;;25.91;44.93;99570.82;373231;144;865205;-56
2021/06/21 04:47:36;;;;;;;2.89;1.22;;;;;;;25.98;43.46;99568.55;370853;144;859136;-56
2021/06/21 04:48:38;;;;;;;5.40;1.05;;;;;;;26.02;43.89;99559.37;372351;143;859158;-57
2021/06/21 04:49:40;;;;;;;1.59;0.80;;;;;;;26.01;43.57;99568.30;371533;144;864787;-58
2021/06/21 04:50:42;;;;;;;1.79;0.86;;;;;;;26.02;43.72;99564.68;372556;144;867107;-59
2021/06/21 04:51:45;;;;;;;3.73;1.01;;;;;;;26.05;43.64;99567.09;373333;143;857918;-57
2021/06/21 04:52:48;;;;;;;3.75;1.02;;;;;;;25.98;42.09;99565.89;372108;144;859372;-58
2021/06/21 04:53:50;;;;;;;4.61;1.16;;;;;;;25.93;42.20;99560.11;367005;143;857353;-58
2021/06/21 04:54:51;;;;;;;5.29;1.27;;;;;;;25.82;43.18;99563.59;366330;144;857533;-58
2021/06/21 05:14:35;;;;;;;4.27;1.08;;;;;;;25.55;43.25;99548.87;375266;142;881325;-57
2021/06/21 05:15:36;;;;;;;3.65;1.10;;;;;;;25.49;43.26;99554.64;366003;147;859103;-57
2021/06/21 05:21:07;;;;;;;5.35;1.21;;;;;;;25.49;44.22;99560.80;369628;142;882981;-58
2021/06/21 05:22:08;;;;;;;4.47;1.13;;;;;;;25.45;44.42;99564.66;364011;147;857412;-57
2021/06/21 05:23:10;;;;;;;6.44;1.04;;;;;;;25.50;43.62;99557.19;362864;145;864781;-56
2021/06/21 05:24:12;;;;;;;2.06;1.14;;;;;;;25.55;43.42;99562.12;371182;142;863556;-58
2021/06/21 05:25:14;;;;;;;3.40;0.96;;;;;;;25.57;43.35;99559.37;369763;142;866690;-57
2021/06/21 05:26:17;;;;;;;6.05;1.07;;;;;;;25.59;43.41;99562.73;372534;144;865350;-58
2021/06/21 05:27:18;;;;;;;6.47;1.32;;;;;;;;;;373611;144;857481;-57
2021/06/21 05:28:20;;;;;;;3.94;1.02;;;;;;;;;;373724;144;865562;-59
2021/06/21 05:29:21;;;;;;;6.06;1.51;;;;;;;;;;373112;144;858212;-58
2021/06/21 05:30:23;;;;;;;1.87;1.23;;;;;;;;;;372931;144;859164;-58
2021/06/21 05:31:25;;;;;;;4.78;1.02;;;;;;;;;;369425;144;860220;-56
2021/06/21 05:32:27;;;;;;;6.14;1.19;;;;;;;;;;372883;143;857435;-57
2021/06/21 05:33:28;;;;;;;3.54;1.15;;;;;;;;;;369244;144;857211;-58
2021/06/21 05:34:30;;;;;;;4.81;1.21;;;;;;;;;;372116;144;857418;-56
2021/06/21 05:35:32;;;;;;;5.01;1.10;;;;;;;;;;370162;144;857402;-58
2021/06/21 05:36:34;;;;;;;7.47;1.31;;;;;;;;;;373440;144;866516;-57
2021/06/21 05:37:35;;;;;;;4.46;1.21;;;;;;;;;;371508;144;858980;-57
2021/06/21 05:38:37;;;;;;;7.94;1.35;;;;;;;;;;372686;144;859775;-58
2021/06/21 05:39:39;;;;;;;5.89;1.05;;;;;;;;;;370611;142;859677;-57
2021/06/21 05:40:42;;;;;;;4.91;1.22;;;;;;;;;;366257;144;857367;-58
2021/06/21 05:41:43;;;;;;;5.51;1.78;;;;;;;;;;368810;145;859262;-57
2021/06/21 05:42:45;;;;;;;3.81;0.96;;;;;;;;;;368565;145;857636;-58
2021/06/21 05:43:47;;;;;;;8.59;1.40;;;;;;;;;;370311;145;857452;-58
2021/06/21 05:44:49;;;;;;;9.26;1.39;;;;;;;;;;364491;145;857505;-58
2021/06/21 05:45:51;;;;;;;4.11;1.27;;;;;;;;;;367219;144;857465;-58
2021/06/21 05:46:54;;;;;;;3.50;1.11;;;;;;;;;;370159;145;857301;-58
2021/06/21 05:47:56;;;;;;;3.64;1.04;;;;;;;;;;363504;147;860148;-58
2021/06/21 05:48:58;;;;;;;5.11;1.11;;;;;;;;;;365568;145;857276;-58
2021/06/21 05:49:59;;;;;;;8.26;1.01;;;;;;;;;;363760;145;867028;-59
2021/06/21 05:51:01;;;;;;;6.37;1.06;;;;;;;;;;369857;144;859166;-58
2021/06/21 05:52:03;;;;;;;4.37;1.35;;;;;;;;;;370314;145;857499;-57
2021/06/21 05:53:04;;;;;;;6.19;1.11;;;;;;;;;;370083;144;858790;-57
2021/06/21 05:54:06;;;;;;;8.51;1.15;;;;;;;;;;368965;144;858698;-58
2021/06/21 05:55:08;;;;;;;5.77;1.39;;;;;;;;;;369698;145;858033;-58
2021/06/21 05:56:11;;;;;;;5.86;1.19;;;;;;;;;;366974;144;857950;-58
2021/06/21 05:57:12;;;;;;;2.45;1.07;;;;;;;;;;367769;143;861005;-58
2021/06/21 05:58:14;;;;;;;6.66;1.65;;;;;;;;;;366660;142;857381;-57
2021/06/21 05:59:17;;;;;;;2.80;1.41;;;;;;;;;;369431;145;857447;-58
2021/06/21 06:00:20;;;;;;;4.46;1.18;;;;;;;;;;364904;145;865473;-58
2021/06/21 06:01:21;;;;;;;3.35;1.00;;;;;;;;;;362997;144;857417;-57
2021/06/21 06:02:23;;;;;;;8.24;1.83;;;;;;;;;;364555;145;860261;-57
2021/06/21 06:03:25;;;;;;;5.59;1.28;;;;;;;;;;369448;145;857371;-57
2021/06/21 06:04:26;;;;;;;5.45;1.21;;;;;;;;;;369459;144;857254;-57
2021/06/21 06:05:29;;;;;;;4.20;1.24;;;;;;;;;;365635;145;857849;-56
2021/06/21 06:06:31;;;;;;;6.16;1.70;;;;;;;;;;370345;145;857383;-57
2021/06/21 06:07:33;;;;;;;10.13;1.21;;;;;;;;;;367710;144;857474;-56
2021/06/21 06:08:35;;;;;;;2.35;1.23;;;;;;;;;;365718;145;857892;-57
2021/06/21 06:09:37;;;;;;;5.01;1.01;;;;;;;;;;362524;144;857286;-59
2021/06/21 06:10:39;;;;;;;7.14;1.51;;;;;;;;;;368180;144;858146;-58
2021/06/21 06:11:40;;;;;;;4.07;1.32;;;;;;;;;;369852;144;859032;-59
2021/06/21 06:12:42;;;;;;;4.50;1.27;;;;;;;;;;368537;144;859543;-59
2021/06/21 06:13:43;;;;;;;1.96;1.07;;;;;;;;;;367281;145;860064;-58
2021/06/21 06:14:45;;;;;;;6.56;1.08;;;;;;;;;;366669;144;859987;-61
2021/06/21 06:15:46;;;;;;;9.90;1.58;;;;;;;;;;366818;145;866260;-59
2021/06/21 06:16:48;;;;;;;3.20;1.27;;;;;;;;;;365225;145;858456;-57
2021/06/21 06:17:50;;;;;;;3.17;1.29;;;;;;;;;;364933;144;865461;-58
2021/06/21 06:18:52;;;;;;;7.27;1.32;;;;;;;;;;365279;144;857368;-58
2021/06/21 06:19:53;;;;;;;7.23;1.43;;;;;;;;;;366518;143;864671;-57
2021/06/21 06:20:55;;;;;;;4.27;1.25;;;;;;;;;;367465;143;857429;-57
2021/06/21 06:21:57;;;;;;;6.53;1.48;;;;;;;;;;367826;144;857321;-57
2021/06/21 06:22:58;;;;;;;6.71;1.59;;;;;;;;;;367264;144;858632;-58
2021/06/21 06:24:00;;;;;;;5.11;1.19;;;;;;;;;;367821;144;858413;-58
2021/06/21 06:25:03;;;;;;;5.88;1.22;;;;;;;;;;368776;144;866624;-58
2021/06/21 06:26:04;;;;;;;4.18;1.45;;;;;;;;;;369287;144;857439;-57
2021/06/21 06:27:06;;;;;;;6.53;1.39;;;;;;;;;;369545;144;864703;-57
2021/06/21 06:28:08;;;;;;;4.45;1.33;;;;;;;;;;370843;144;859011;-57
2021/06/21 06:29:13;;;;;;;4.71;1.49;;;;;;;;;;367146;144;866745;-55
2021/06/21 06:30:16;;;;;;;4.80;1.46;;;;;;;;;;367149;145;859193;-57
2021/06/21 06:31:17;;;;;;;7.23;1.61;;;;;;;;;;363252;144;857415;-57
2021/06/21 06:32:19;;;;;;;3.21;1.70;;;;;;;;;;364702;145;858705;-56
2021/06/21 06:33:20;;;;;;;7.47;1.68;;;;;;;;;;367484;145;864632;-58
2021/06/21 06:34:23;;;;;;;5.86;1.67;;;;;;;;;;368131;144;857373;-55
2021/06/21 06:35:24;;;;;;;3.80;1.26;;;;;;;;;;369321;144;858003;-57
2021/06/21 06:36:27;;;;;;;5.47;1.84;;;;;;;;;;367550;145;857487;-58
2021/06/21 06:37:29;;;;;;;5.69;1.62;;;;;;;;;;366575;144;857506;-56
2021/06/21 06:38:31;;;;;;;4.64;1.50;;;;;;;;;;370920;143;857862;-57
2021/06/21 06:39:33;;;;;;;2.97;1.09;;;;;;;;;;368921;143;859250;-58
2021/06/21 06:40:36;;;;;;;4.55;1.52;;;;;;;;;;367629;144;857408;-58
2021/06/21 06:41:38;;;;;;;33.74;1.96;;;;;;;;;;366004;144;857683;-58
2021/06/21 06:42:40;;;;;;;3.91;1.35;;;;;;;;;;365617;144;857982;-57
2021/06/21 06:43:42;;;;;;;2.22;1.52;;;;;;;;;;367168;144;866294;-57
2021/06/21 06:44:43;;;;;;;4.21;1.18;;;;;;;;;;367254;144;857433;-57
2021/06/21 06:45:45;;;;;;;3.59;1.21;;;;;;;;;;368273;144;858152;-57
2021/06/21 06:46:47;;;;;;;3.59;1.15;;;;;;;;;;368330;145;858987;-57
2021/06/21 06:47:49;;;;;;;4.95;1.41;;;;;;;;;;365030;144;857546;-57
2021/06/21 06:48:50;;;;;;;3.34;1.19;;;;;;;;;;368864;144;858761;-58
2021/06/21 06:49:52;;;;;;;5.44;1.65;;;;;;;;;;370145;145;857393;-57
2021/06/21 06:50:54;;;;;;;6.34;1.61;;;;;;;;;;364040;144;857458;-58
2021/06/21 06:51:56;;;;;;;6.49;1.59;;;;;;;;;;365693;144;864769;-57
2021/06/21 06:52:59;;;;;;;6.34;1.28;;;;;;;;;;367148;144;866408;-57
2021/06/21 06:54:20;;;;;;;7.33;1.40;;;;;;;;;;366628;144;857505;-59
2021/06/21 06:57:52;;;;;;;6.56;1.76;;;;;;;;;;367223;144;858973;-59
2021/06/21 06:58:53;;;;;;;6.18;1.64;;;;;;;;;;365717;144;864934;-58
2021/06/21 06:59:55;;;;;;;6.91;1.56;;;;;;;;;;366593;144;857303;-56
2021/06/21 07:00:56;;;;;;;7.19;1.34;;;;;;;;;;367039;145;864769;-58
2021/06/21 07:01:59;;;;;;;3.26;1.40;;;;;;;;;;369641;144;864698;-58
2021/06/21 07:03:00;;;;;;;6.36;1.55;;;;;;;;;;364261;145;864487;-60
2021/06/21 07:04:02;;;;;;;5.81;1.55;;;;;;;;;;367664;145;857397;-58
2021/06/21 07:05:04;;;;;;;4.87;1.38;;;;;;;;;;362235;145;859210;-58
2021/06/21 07:06:06;;;;;;;4.89;1.53;;;;;;;;;;361997;145;859098;-58
2021/06/21 07:07:08;;;;;;;8.60;1.68;;;;;;;;;;370136;145;858593;-58
2021/06/21 07:08:09;;;;;;;5.25;1.46;;;;;;;;;;368300;144;864870;-58
2021/06/21 07:09:11;;;;;;;6.49;1.34;;;;;;;;;;373377;144;857441;-58
2021/06/21 07:10:14;;;;;;;5.07;1.21;;;;;;;;;;369271;144;857533;-58
2021/06/21 07:11:16;;;;;;;7.06;1.40;;;;;;;;;;368004;144;857536;-58
2021/06/21 07:12:18;;;;;;;6.41;1.46;;;;;;;;;;369531;145;857535;-57
2021/06/21 07:13:19;;;;;;;4.94;1.37;;;;;;;;;;366245;144;864873;-58
2021/06/21 07:14:21;;;;;;;4.29;1.11;;;;;;;;;;366378;145;856612;-58
2021/06/21 07:15:22;;;;;;;3.55;1.54;;;;;;;;;;370226;145;858989;-57
2021/06/21 07:16:26;;;;;;;4.81;1.41;;;;;;;;;;365147;144;858984;-58
2021/06/21 07:17:27;;;;;;;2.68;1.49;;;;;;;;;;365745;145;857536;-58
2021/06/21 07:18:29;;;;;;;2.69;1.46;;;;;;;;;;368618;144;858789;-57
2021/06/21 07:19:32;;;;;;;6.25;1.30;;;;;;;;;;364415;145;857680;-59
2021/06/21 07:20:35;;;;;;;5.34;1.52;;;;;;;;;;363201;148;865423;-59
2021/06/21 07:21:36;;;;;;;6.46;1.53;;;;;;;;;;366060;144;858834;-58
2021/06/21 07:22:38;;;;;;;9.07;1.54;;;;;;;;;;370885;145;857403;-59
2021/06/21 07:23:40;;;;;;;5.29;1.69;;;;;;;;;;367994;145;859280;-58
2021/06/21 07:24:41;;;;;;;4.75;1.66;;;;;;;;;;366401;144;858323;-58
2021/06/21 07:25:44;;;;;;;5.85;1.57;;;;;;;;;;370931;145;858947;-58
2021/06/21 07:26:46;;;;;;;3.13;1.38;;;;;;;;;;369454;144;859222;-58
2021/06/21 07:27:48;;;;;;;10.45;2.11;;;;;;;;;;369556;145;857502;-58
2021/06/21 07:28:50;;;;;;;6.22;1.93;;;;;;;;;;368308;144;857358;-59
2021/06/21 07:29:52;;;;;;;7.46;1.68;;;;;;;;;;369762;144;857451;-59
2021/06/21 07:30:54;;;;;;;3.83;1.50;;;;;;;;;;368780;145;857463;-58
2021/06/21 07:31:56;;;;;;;4.98;1.54;;;;;;;;;;365972;144;864681;-58
2021/06/21 07:32:57;;;;;;;7.15;1.59;;;;;;;;;;368120;144;857558;-58
2021/06/21 07:33:59;;;;;;;7.34;1.73;;;;;;;;;;367526;145;859716;-58
2021/06/21 07:35:01;;;;;;;5.33;1.55;;;;;;;;;;358204;148;857385;-58
2021/06/21 07:36:03;;;;;;;6.31;1.43;;;;;;;;;;363092;148;857439;-58
2021/06/21 07:37:04;;;;;;;4.83;1.31;;;;;;;;;;355245;148;867098;-60
2021/06/21 07:38:07;;;;;;;9.44;1.66;;;;;;;;;;356463;147;858363;-57
2021/06/21 07:39:08;;;;;;;7.23;1.53;;;;;;;;;;355632;147;864871;-59
2021/06/21 07:40:10;;;;;;;4.81;1.50;;;;;;;;;;356106;147;858482;-59
2021/06/21 07:41:13;;;;;;;7.57;1.43;;;;;;;;;;354671;147;857554;-58
2021/06/21 07:42:14;;;;;;;6.39;1.17;;;;;;;;;;356853;148;857451;-59
2021/06/21 07:43:16;;;;;;;12.89;1.96;;;;;;;;;;356236;147;857526;-58
2021/06/21 07:44:17;;;;;;;6.39;1.54;;;;;;;;;;353962;151;857613;-58
2021/06/21 07:45:19;;;;;;;6.47;1.54;;;;;;;;;;354951;147;857290;-58
2021/06/21 07:46:22;;;;;;;8.77;1.59;;;;;;;;;;363227;147;860924;-58
2021/06/21 07:47:23;;;;;;;2.93;1.16;;;;;;;;;;362482;147;864759;-58
2021/06/21 07:48:25;;;;;;;5.95;1.72;;;;;;;;;;361403;147;864610;-59
2021/06/21 07:49:27;;;;;;;4.73;1.29;;;;;;;;;;359398;148;857313;-59
2021/06/21 07:50:31;;;;;;;6.31;1.37;;;;;;;;;;356410;151;864690;-59
2021/06/21 07:51:32;;;;;;;9.63;2.01;;;;;;;;;;360997;147;864862;-58
2021/06/21 07:52:34;;;;;;;4.11;1.51;;;;;;;;;;360077;148;857480;-57
2021/06/21 07:53:37;;;;;;;10.75;1.79;;;;;;;;;;360217;147;859337;-58
2021/06/21 07:54:39;;;;;;;6.60;1.67;;;;;;;;;;363549;147;859122;-58
2021/06/21 07:55:41;;;;;;;3.66;1.29;;;;;;;;;;357753;149;858031;-58
2021/06/21 07:56:44;;;;;;;3.61;1.42;;;;;;;;;;358042;147;859933;-62
2021/06/21 07:57:46;;;;;;;3.63;1.24;;;;;;;;;;350955;153;857330;-59
2021/06/21 07:58:48;;;;;;;4.53;1.27;;;;;;;;;;350928;153;859363;-59
2021/06/21 07:59:50;;;;;;;4.79;1.31;;;;;;;;;;352365;150;857411;-60
2021/06/21 08:00:51;;;;;;;5.40;1.49;;;;;;;;;;356439;151;866182;-59
2021/06/21 08:01:55;;;;;;;6.73;1.68;;;;;;;;;;360601;147;865084;-59
2021/06/21 08:02:56;;;;;;;4.25;1.33;;;;;;;;;;358879;147;857463;-59
2021/06/21 08:03:58;;;;;;;4.59;1.66;;;;;;;;;;356403;151;858508;-60
2021/06/21 08:05:00;;;;;;;5.39;1.50;;;;;;;;;;357565;147;857680;-60
2021/06/21 08:06:03;;;;;;;3.86;1.43;;;;;;;;;;355211;148;865872;-59
2021/06/21 08:07:05;;;;;;;2.02;1.54;;;;;;;;;;362956;148;866610;-60
2021/06/21 08:08:07;;;;;;;4.39;2.03;;;;;;;;;;357001;148;858429;-59
2021/06/21 08:09:08;;;;;;;4.51;1.54;;;;;;;;;;362943;148;865155;-60
2021/06/21 08:10:11;;;;;;;5.03;1.48;;;;;;;;;;359797;148;865035;-60
2021/06/21 08:11:13;;;;;;;6.44;1.74;;;;;;;;;;353439;150;857551;-59
2021/06/21 08:12:14;;;;;;;5.61;1.48;;;;;;;;;;356216;151;858300;-59
2021/06/21 08:13:16;;;;;;;6.64;1.49;;;;;;;;;;356360;147;864956;-60
2021/06/21 08:14:17;;;;;;;4.99;1.78;;;;;;;;;;363709;147;865421;-59
2021/06/21 08:15:19;;;;;;;6.91;1.56;;;;;;;;;;363227;147;857665;-58
2021/06/21 08:16:21;;;;;;;7.57;1.40;;;;;;;;;;362175;147;857607;-60